Time;durP1;ratioP1;P1;durP2;ratioP2;P2;SDS_P1;SDS_P2;PMS_P1;PMS_P2;Temp;Humidity;BMP_temperature;BMP_pressure;BME280_temperature;BME280_humidity;BME280_pressure;Samples;Min_cycle;Max_cycle;Signal;HPM_P1;HPM_P2
2022/09/15 00:01:12;;;;;;;;;;;24.60;85.10;;;;;;4968063;28;19915;-70
2022/09/15 00:03:39;;;;;;;;;;;24.60;84.80;;;;;;4954085;28;19923;-72
2022/09/15 00:06:05;;;;;;;;;;;24.70;84.50;;;;;;4953626;28;19934;-72
2022/09/15 00:08:31;;;;;;;;;;;24.60;84.80;;;;;;4954206;28;19919;-71
2022/09/15 00:11:01;;;;;;;;;;;24.60;84.90;;;;;;4953862;28;19958;-70
2022/09/15 00:13:27;;;;;;;;;;;24.60;84.90;;;;;;4953885;28;19915;-71
2022/09/15 00:15:53;;;;;;;;;;;24.60;84.90;;;;;;4953550;28;19914;-72
2022/09/15 00:18:18;;;;;;;;;;;24.60;84.90;;;;;;4953800;28;19938;-72
2022/09/15 00:20:44;;;;;;;;;;;24.60;84.90;;;;;;4953756;28;20425;-72
2022/09/15 00:23:11;;;;;;;;;;;24.60;85.10;;;;;;4933314;28;19926;-72
2022/09/15 00:25:44;;;;;;;;;;;24.60;84.50;;;;;;4953804;28;20018;-71
2022/09/15 00:28:10;;;;;;;;;;;24.70;84.60;;;;;;4953480;28;19957;-71
2022/09/15 00:30:43;;;;;;;;;;;24.70;84.70;;;;;;4953734;28;19973;-72
2022/09/15 00:33:09;;;;;;;;;;;24.70;84.40;;;;;;4953515;28;19915;-71
2022/09/15 00:35:39;;;;;;;;;;;24.70;84.30;;;;;;4953981;28;19961;-71
2022/09/15 00:38:06;;;;;;;;;;;24.60;84.30;;;;;;4953526;28;19915;-71
2022/09/15 00:40:33;;;;;;;;;;;24.60;84.50;;;;;;4953459;28;19997;-72
2022/09/15 00:42:58;;;;;;;;;;;24.70;84.40;;;;;;4953468;28;20045;-71
2022/09/15 00:45:24;;;;;;;;;;;24.70;84.50;;;;;;4953529;28;20353;-73
2022/09/15 00:47:50;;;;;;;;;;;24.70;84.40;;;;;;4953556;28;20191;-70
2022/09/15 00:50:17;;;;;;;;;;;24.70;84.00;;;;;;4953297;28;19981;-72
2022/09/15 00:52:45;;;;;;;;;;;24.70;84.90;;;;;;4944539;29;19922;-71
2022/09/15 00:55:16;;;;;;;;;;;24.70;84.00;;;;;;4953351;28;19914;-72
2022/09/15 00:57:51;;;;;;;;;;;24.70;84.00;;;;;;4951649;28;19910;-72
2022/09/15 01:00:18;;;;;;;;;;;24.70;84.00;;;;;;4947690;29;19961;-71
2022/09/15 01:02:44;;;;;;;;;;;24.70;84.10;;;;;;4956719;28;19922;-72
2022/09/15 01:05:11;;;;;;;;;;;24.70;84.00;;;;;;4956889;28;20009;-73
2022/09/15 01:07:40;;;;;;;;;;;24.60;84.10;;;;;;4956631;28;19921;-71
2022/09/15 01:10:26;;;;;;;;;;;24.70;84.00;;;;;;4955631;28;20247;-70
2022/09/15 01:12:53;;;;;;;;;;;24.70;83.90;;;;;;4956703;28;19920;-71
2022/09/15 01:15:20;;;;;;;;;;;24.70;83.90;;;;;;4956858;28;20338;-73
2022/09/15 01:17:56;;;;;;;;;;;24.70;83.60;;;;;;4956453;28;19969;-72
2022/09/15 01:20:22;;;;;;;;;;;24.70;83.80;;;;;;4956547;28;20294;-71
2022/09/15 01:23:00;;;;;;;;;;;24.60;84.40;;;;;;4947085;28;19938;-74
2022/09/15 01:25:32;;;;;;;;;;;24.60;84.30;;;;;;4956691;28;20256;-73
2022/09/15 01:28:16;;;;;;;;;;;24.70;84.30;;;;;;4956331;28;20453;-73
2022/09/15 01:30:49;;;;;;;;;;;24.60;84.20;;;;;;4956495;28;19910;-71
2022/09/15 01:33:17;;;;;;;;;;;24.60;84.10;;;;;;4956327;28;20427;-73
2022/09/15 01:36:02;;;;;;;;;;;24.70;83.70;;;;;;4956239;28;19958;-74
2022/09/15 01:38:30;;;;;;;;;;;24.70;84.00;;;;;;4956076;28;19920;-70
2022/09/15 01:40:59;;;;;;;;;;;24.60;84.20;;;;;;4956237;28;19910;-73
2022/09/15 01:43:25;;;;;;;;;;;24.60;83.90;;;;;;4956021;28;19926;-74
2022/09/15 01:45:51;;;;;;;;;;;24.60;84.20;;;;;;4954804;28;20282;-73
2022/09/15 01:48:18;;;;;;;;;;;24.60;84.20;;;;;;4942532;28;20010;-71
2022/09/15 01:50:47;;;;;;;;;;;24.60;83.90;;;;;;4955910;28;19929;-71
2022/09/15 01:53:14;;;;;;;;;;;24.60;83.80;;;;;;4947781;28;20421;-72
2022/09/15 01:55:53;;;;;;;;;;;24.60;83.90;;;;;;4956155;28;20262;-71
2022/09/15 01:58:19;;;;;;;;;;;24.60;83.70;;;;;;4946772;28;20333;-74
2022/09/15 02:00:48;;;;;;;;;;;24.60;83.60;;;;;;4951612;29;19996;-72
2022/09/15 02:03:19;;;;;;;;;;;24.60;83.80;;;;;;4955740;28;19954;-71
2022/09/15 02:05:47;;;;;;;;;;;24.60;83.40;;;;;;4955631;28;20256;-72
2022/09/15 02:08:23;;;;;;;;;;;24.50;83.90;;;;;;4954870;28;19914;-72
2022/09/15 02:10:57;;;;;;;;;;;24.40;84.20;;;;;;4955618;28;19914;-71
2022/09/15 02:13:27;;;;;;;;;;;24.40;84.40;;;;;;4955486;28;19914;-72
2022/09/15 02:15:55;;;;;;;;;;;24.40;84.60;;;;;;4955417;28;19914;-71
2022/09/15 02:18:29;;;;;;;;;;;24.40;84.60;;;;;;4955482;28;19926;-73
2022/09/15 02:20:58;;;;;;;;;;;24.30;84.90;;;;;;4955337;28;20013;-72
2022/09/15 02:23:27;;;;;;;;;;;24.30;84.90;;;;;;4946472;28;19926;-71
2022/09/15 02:25:58;;;;;;;;;;;24.40;84.90;;;;;;4955393;28;19918;-71
2022/09/15 02:28:27;;;;;;;;;;;24.40;84.90;;;;;;4955082;28;20008;-73
2022/09/15 02:30:54;;;;;;;;;;;24.30;85.30;;;;;;4955169;28;20363;-72
2022/09/15 02:33:22;;;;;;;;;;;24.30;85.30;;;;;;4955046;28;19914;-72
2022/09/15 02:35:50;;;;;;;;;;;24.20;85.80;;;;;;4955302;28;19918;-73
2022/09/15 02:38:16;;;;;;;;;;;24.20;86.10;;;;;;4954953;28;19978;-73
2022/09/15 02:40:43;;;;;;;;;;;24.20;85.50;;;;;;4955073;29;20382;-71
2022/09/15 02:43:12;;;;;;;;;;;24.40;85.20;;;;;;4954834;28;19974;-72
2022/09/15 02:45:38;;;;;;;;;;;24.40;84.70;;;;;;4954927;28;19915;-71
2022/09/15 02:48:03;;;;;;;;;;;24.40;84.90;;;;;;4954820;28;20388;-71
2022/09/15 02:50:29;;;;;;;;;;;24.40;85.10;;;;;;4954786;28;19926;-74
2022/09/15 02:52:55;;;;;;;;;;;24.40;84.70;;;;;;4949473;28;20322;-72
2022/09/15 02:55:21;;;;;;;;;;;24.40;84.70;;;;;;4954914;28;19921;-71
2022/09/15 02:57:47;;;;;;;;;;;24.30;85.30;;;;;;4949437;28;19969;-71
2022/09/15 03:00:14;;;;;;;;;;;24.20;86.10;;;;;;4946371;29;19910;-71
2022/09/15 03:02:41;;;;;;;;;;;24.20;85.30;;;;;;4954461;28;19923;-70
2022/09/15 03:05:07;;;;;;;;;;;24.30;83.80;;;;;;4954674;28;19910;-70
2022/09/15 03:07:33;;;;;;;;;;;24.30;83.60;;;;;;4954335;28;20278;-71
2022/09/15 03:09:58;;;;;;;;;;;24.20;84.80;;;;;;4954589;28;19914;-72
2022/09/15 03:12:25;;;;;;;;;;;24.10;85.30;;;;;;4954388;28;19915;-72
2022/09/15 03:14:50;;;;;;;;;;;24.20;83.90;;;;;;4954356;28;19918;-72
2022/09/15 03:17:16;;;;;;;;;;;24.20;83.70;;;;;;4954369;28;19969;-71
2022/09/15 03:19:42;;;;;;;;;;;24.20;84.10;;;;;;4969159;28;19911;-70
2022/09/15 03:22:09;;;;;;;;;;;24.20;83.20;;;;;;4954479;28;19914;-71
2022/09/15 03:24:35;;;;;;;;;;;24.20;83.00;;;;;;4935536;28;20354;-72
2022/09/15 03:27:01;;;;;;;;;;;24.20;83.00;;;;;;4954241;28;19914;-72
2022/09/15 03:29:27;;;;;;;;;;;24.20;82.90;;;;;;4954329;28;19917;-71
2022/09/15 03:31:52;;;;;;;;;;;24.10;82.70;;;;;;4954286;28;19914;-70
2022/09/15 03:34:18;;;;;;;;;;;24.20;82.60;;;;;;4954189;28;19918;-71
2022/09/15 03:36:43;;;;;;;;;;;24.20;82.40;;;;;;4954211;28;20009;-71
2022/09/15 03:39:10;;;;;;;;;;;24.20;82.70;;;;;;4954202;29;19957;-72
2022/09/15 03:41:36;;;;;;;;;;;24.20;82.40;;;;;;4952759;28;20009;-72
2022/09/15 03:44:01;;;;;;;;;;;24.20;82.00;;;;;;4954236;28;20503;-69
2022/09/15 03:46:27;;;;;;;;;;;24.20;82.00;;;;;;4952994;28;19926;-70
2022/09/15 03:48:53;;;;;;;;;;;24.10;81.90;;;;;;4953907;28;19915;-72
2022/09/15 03:51:18;;;;;;;;;;;24.10;81.90;;;;;;4954007;28;19938;-72
2022/09/15 03:53:44;;;;;;;;;;;24.20;81.70;;;;;;4945792;28;20362;-72
2022/09/15 03:56:09;;;;;;;;;;;24.20;81.50;;;;;;4954086;28;20441;-71
2022/09/15 03:58:35;;;;;;;;;;;24.20;81.40;;;;;;4941471;28;20273;-70
2022/09/15 04:01:00;;;;;;;;;;;24.20;81.20;;;;;;4951717;29;20363;-71
2022/09/15 04:03:26;;;;;;;;;;;24.20;81.30;;;;;;4953996;28;20319;-72
2022/09/15 04:05:52;;;;;;;;;;;24.10;81.70;;;;;;4953872;28;19910;-71
2022/09/15 04:08:17;;;;;;;;;;;24.10;81.60;;;;;;4954045;28;19911;-72
2022/09/15 04:10:43;;;;;;;;;;;24.10;81.80;;;;;;4953885;28;20346;-72
2022/09/15 04:13:09;;;;;;;;;;;24.10;81.80;;;;;;4953765;28;20449;-72
2022/09/15 04:15:34;;;;;;;;;;;24.10;81.90;;;;;;4954155;28;19938;-74
2022/09/15 04:18:00;;;;;;;;;;;24.10;81.90;;;;;;4953530;28;20479;-71
2022/09/15 04:20:25;;;;;;;;;;;24.00;81.70;;;;;;4952955;28;19917;-71
2022/09/15 04:22:51;;;;;;;;;;;24.00;82.50;;;;;;4947897;28;19925;-72
2022/09/15 04:25:17;;;;;;;;;;;24.00;81.70;;;;;;4953763;28;20020;-70
2022/09/15 04:27:42;;;;;;;;;;;24.00;81.40;;;;;;4953651;28;19933;-72
2022/09/15 04:30:08;;;;;;;;;;;24.00;81.40;;;;;;4953645;28;19910;-71
2022/09/15 04:32:34;;;;;;;;;;;24.00;81.40;;;;;;4956309;28;19922;-73
2022/09/15 04:35:00;;;;;;;;;;;24.00;81.10;;;;;;4943995;28;20407;-73
2022/09/15 04:37:25;;;;;;;;;;;24.00;80.90;;;;;;4957479;28;19926;-72
2022/09/15 04:39:51;;;;;;;;;;;24.10;80.80;;;;;;4957520;28;20278;-72
2022/09/15 04:42:16;;;;;;;;;;;24.00;81.10;;;;;;4957373;28;20371;-75
2022/09/15 04:44:42;;;;;;;;;;;24.00;81.70;;;;;;4957646;28;20330;-73
2022/09/15 04:47:08;;;;;;;;;;;24.00;81.90;;;;;;4943621;28;20363;-73
2022/09/15 04:49:33;;;;;;;;;;;24.00;82.20;;;;;;4957305;28;20388;-74
2022/09/15 04:51:59;;;;;;;;;;;24.00;82.10;;;;;;4957037;28;19930;-73
2022/09/15 04:54:24;;;;;;;;;;;24.10;82.80;;;;;;4948793;28;20330;-73
2022/09/15 04:56:50;;;;;;;;;;;24.10;82.20;;;;;;4956933;28;19925;-72
2022/09/15 04:59:17;;;;;;;;;;;24.10;82.60;;;;;;4943606;28;19961;-73
2022/09/15 05:01:43;;;;;;;;;;;24.10;82.50;;;;;;4956937;28;19926;-72
2022/09/15 05:04:09;;;;;;;;;;;24.10;83.10;;;;;;4956942;28;19911;-72
2022/09/15 05:06:34;;;;;;;;;;;24.10;82.90;;;;;;4956878;28;19915;-74
2022/09/15 05:09:01;;;;;;;;;;;24.10;83.10;;;;;;4943829;28;19915;-73
2022/09/15 05:11:27;;;;;;;;;;;24.10;83.70;;;;;;4943086;29;19914;-71
2022/09/15 05:13:53;;;;;;;;;;;24.10;83.80;;;;;;4955469;28;20290;-71
2022/09/15 05:16:20;;;;;;;;;;;24.10;83.80;;;;;;4956658;28;19910;-66
2022/09/15 05:18:46;;;;;;;;;;;24.10;84.10;;;;;;4956585;28;19910;-67
2022/09/15 05:21:13;;;;;;;;;;;24.10;84.60;;;;;;4956434;28;19910;-63
2022/09/15 05:23:38;;;;;;;;;;;24.10;84.90;;;;;;4951499;28;19972;-65
2022/09/15 05:26:05;;;;;;;;;;;24.10;84.90;;;;;;4956478;28;20327;-65
2022/09/15 05:28:31;;;;;;;;;;;24.10;85.00;;;;;;4956524;28;19911;-62
2022/09/15 05:30:57;;;;;;;;;;;24.10;84.60;;;;;;4956350;28;19914;-66
2022/09/15 05:33:23;;;;;;;;;;;24.10;85.40;;;;;;4956174;28;20311;-67
2022/09/15 05:35:52;;;;;;;;;;;24.20;85.10;;;;;;4956365;28;19921;-67
2022/09/15 05:38:17;;;;;;;;;;;24.20;84.90;;;;;;4956121;28;20513;-71
2022/09/15 05:40:43;;;;;;;;;;;24.20;84.90;;;;;;4957563;28;19970;-65
2022/09/15 05:43:10;;;;;;;;;;;24.20;85.00;;;;;;4955258;28;19925;-64
2022/09/15 05:45:35;;;;;;;;;;;24.20;85.40;;;;;;4956492;28;19918;-65
2022/09/15 05:48:02;;;;;;;;;;;24.20;85.70;;;;;;4955804;29;19914;-64
2022/09/15 05:50:29;;;;;;;;;;;24.20;85.70;;;;;;4955674;28;19919;-63
2022/09/15 05:52:55;;;;;;;;;;;24.10;85.90;;;;;;4949138;28;19915;-67
2022/09/15 05:55:20;;;;;;;;;;;24.10;86.40;;;;;;4955898;28;19919;-70
2022/09/15 05:57:46;;;;;;;;;;;24.10;86.10;;;;;;4950883;28;20288;-68
2022/09/15 06:00:12;;;;;;;;;;;24.10;86.00;;;;;;4947369;29;20001;-70
2022/09/15 06:02:37;;;;;;;;;;;24.10;85.90;;;;;;4955644;28;19966;-66
2022/09/15 06:05:03;;;;;;;;;;;24.10;85.90;;;;;;4955733;28;20041;-69
2022/09/15 06:07:28;;;;;;;;;;;24.20;85.70;;;;;;4955421;28;19911;-69
2022/09/15 06:09:54;;;;;;;;;;;24.20;85.50;;;;;;4940173;28;19919;-68
2022/09/15 06:12:20;;;;;;;;;;;24.20;85.00;;;;;;4935443;29;19961;-68
2022/09/15 06:14:49;;;;;;;;;;;24.20;85.20;;;;;;4925246;28;19958;-68
2022/09/15 06:17:17;;;;;;;;;;;24.20;85.20;;;;;;4916713;28;19912;-68
2022/09/15 06:19:43;;;;;;;;;;;24.10;85.20;;;;;;4916912;29;19959;-68
2022/09/15 06:22:08;;;;;;;;;;;24.10;85.30;;;;;;4948771;29;19922;-65
2022/09/15 06:24:34;;;;;;;;;;;24.20;84.90;;;;;;4950745;29;19918;-67
2022/09/15 06:27:00;;;;;;;;;;;24.20;84.90;;;;;;4955155;28;20299;-66
2022/09/15 06:29:25;;;;;;;;;;;24.20;85.00;;;;;;4955581;28;20341;-66
2022/09/15 06:31:51;;;;;;;;;;;24.20;84.90;;;;;;4955457;28;19918;-64
2022/09/15 06:34:16;;;;;;;;;;;24.20;84.50;;;;;;4955286;28;20294;-63
2022/09/15 06:36:42;;;;;;;;;;;24.30;84.50;;;;;;4955352;28;20001;-65
2022/09/15 06:39:08;;;;;;;;;;;24.30;84.00;;;;;;4955010;28;19911;-65
2022/09/15 06:41:34;;;;;;;;;;;24.40;83.60;;;;;;4954945;29;20358;-66
2022/09/15 06:43:59;;;;;;;;;;;24.40;83.30;;;;;;4938755;28;19923;-66
2022/09/15 06:46:27;;;;;;;;;;;24.40;83.10;;;;;;4934643;29;19938;-65
2022/09/15 06:48:53;;;;;;;;;;;24.30;83.30;;;;;;4929664;29;19923;-63
2022/09/15 06:51:21;;;;;;;;;;;24.40;83.00;;;;;;4935544;29;19927;-64
2022/09/15 06:53:47;;;;;;;;;;;24.40;82.70;;;;;;4914452;29;20002;-64
2022/09/15 06:56:13;;;;;;;;;;;24.50;82.80;;;;;;4916812;28;20419;-65
2022/09/15 06:58:40;;;;;;;;;;;24.50;82.70;;;;;;4926395;29;20285;-65
2022/09/15 07:01:13;;;;;;;;;;;24.60;82.40;;;;;;4934408;29;19918;-63
2022/09/15 07:03:39;;;;;;;;;;;24.60;82.20;;;;;;4926983;29;19930;-67
2022/09/15 07:06:05;;;;;;;;;;;24.60;82.50;;;;;;4934231;29;19914;-64
2022/09/15 07:08:31;;;;;;;;;;;24.60;82.20;;;;;;4934399;29;20489;-65
2022/09/15 07:10:57;;;;;;;;;;;24.60;82.30;;;;;;4925083;29;19951;-64
2022/09/15 07:13:22;;;;;;;;;;;24.60;82.50;;;;;;4915844;29;19918;-66
2022/09/15 07:15:51;;;;;;;;;;;24.50;82.80;;;;;;4929205;29;20286;-65
2022/09/15 07:18:17;;;;;;;;;;;24.60;82.40;;;;;;4924797;29;19915;-67
2022/09/15 07:20:43;;;;;;;;;;;24.70;82.50;;;;;;4931169;29;20261;-66
2022/09/15 07:23:08;;;;;;;;;;;24.70;82.40;;;;;;4927339;29;20387;-64
2022/09/15 07:25:34;;;;;;;;;;;24.60;82.60;;;;;;4936438;28;19925;-66
2022/09/15 07:28:00;;;;;;;;;;;24.60;82.90;;;;;;4934079;28;19917;-65
2022/09/15 07:30:26;;;;;;;;;;;24.60;83.50;;;;;;4934385;28;20881;-65
2022/09/15 07:32:51;;;;;;;;;;;24.60;83.00;;;;;;4931483;29;19957;-63
2022/09/15 07:35:18;;;;;;;;;;;24.60;83.10;;;;;;4933914;29;19970;-63
2022/09/15 07:37:43;;;;;;;;;;;24.70;82.80;;;;;;4948445;29;19950;-65
2022/09/15 07:40:10;;;;;;;;;;;24.80;82.70;;;;;;4928755;29;19953;-65
2022/09/15 07:42:36;;;;;;;;;;;24.90;82.40;;;;;;4930347;28;19979;-63
2022/09/15 07:45:01;;;;;;;;;;;25.10;82.40;;;;;;4915238;29;19911;-66
2022/09/15 07:47:27;;;;;;;;;;;25.20;82.10;;;;;;4915132;29;19926;-68
2022/09/15 07:49:52;;;;;;;;;;;25.30;80.90;;;;;;4915189;29;19974;-63
2022/09/15 07:52:18;;;;;;;;;;;25.40;80.50;;;;;;4929495;28;19923;-63
2022/09/15 07:54:43;;;;;;;;;;;25.40;79.70;;;;;;4926154;29;20286;-65
2022/09/15 07:57:09;;;;;;;;;;;25.30;80.50;;;;;;4930786;29;19922;-66
2022/09/15 07:59:34;;;;;;;;;;;25.30;80.40;;;;;;4933865;29;19911;-65
2022/09/15 08:02:00;;;;;;;;;;;25.20;81.00;;;;;;4924504;29;19923;-67
2022/09/15 08:04:26;;;;;;;;;;;25.10;80.60;;;;;;4915086;29;20041;-65
2022/09/15 08:06:51;;;;;;;;;;;25.10;81.00;;;;;;4927573;29;19971;-62
2022/09/15 08:09:17;;;;;;;;;;;25.20;80.80;;;;;;4937622;29;20402;-67
2022/09/15 08:11:42;;;;;;;;;;;25.40;79.20;;;;;;4937639;29;19940;-63
2022/09/15 08:14:08;;;;;;;;;;;25.70;78.90;;;;;;4937441;29;19958;-65
2022/09/15 08:16:34;;;;;;;;;;;25.80;77.90;;;;;;4935301;29;19966;-64
2022/09/15 08:18:59;;;;;;;;;;;25.70;77.70;;;;;;4928040;29;19911;-68
2022/09/15 08:21:26;;;;;;;;;;;25.70;79.00;;;;;;4919174;28;19915;-64
2022/09/15 08:23:56;;;;;;;;;;;25.60;79.30;;;;;;4913918;28;20366;-66
2022/09/15 08:26:22;;;;;;;;;;;25.60;79.10;;;;;;4957661;28;19954;-64
2022/09/15 08:28:47;;;;;;;;;;;25.50;80.40;;;;;;4957514;28;19961;-62
2022/09/15 08:31:14;;;;;;;;;;;25.40;80.90;;;;;;4957414;28;20291;-66
2022/09/15 08:33:39;;;;;;;;;;;25.20;80.80;;;;;;4957516;28;19914;-63
2022/09/15 08:36:06;;;;;;;;;;;25.10;81.20;;;;;;4957331;28;20064;-60
2022/09/15 08:38:32;;;;;;;;;;;25.10;81.90;;;;;;4957394;28;19915;-66
2022/09/15 08:41:00;;;;;;;;;;;25.00;83.40;;;;;;4957193;28;19918;-67
2022/09/15 08:43:28;;;;;;;;;;;24.90;83.50;;;;;;4957235;28;19922;-71
2022/09/15 08:45:59;;;;;;;;;;;24.90;85.60;;;;;;4957119;28;19910;-66
2022/09/15 08:48:26;;;;;;;;;;;24.70;85.70;;;;;;4956986;28;19918;-66
2022/09/15 08:50:56;;;;;;;;;;;24.50;88.80;;;;;;4956858;28;20021;-67
2022/09/15 08:53:26;;;;;;;;;;;24.20;89.90;;;;;;4913335;28;19923;-63
2022/09/15 08:55:53;;;;;;;;;;;23.50;91.00;;;;;;4957053;28;19914;-63
2022/09/15 08:58:19;;;;;;;;;;;23.10;86.50;;;;;;4947872;28;20310;-66
2022/09/15 09:00:47;;;;;;;;;;;22.20;87.90;;;;;;4952766;29;19914;-70
2022/09/15 09:03:31;;;;;;;;;;;22.00;85.60;;;;;;4956974;28;19926;-71
2022/09/15 09:06:01;;;;;;;;;;;22.00;85.90;;;;;;4956992;28;20013;-64
2022/09/15 09:08:38;;;;;;;;;;;22.00;87.60;;;;;;4956701;28;19958;-68
2022/09/15 09:11:30;;;;;;;;;;;21.80;84.60;;;;;;4956795;28;19914;-66
2022/09/15 09:14:06;;;;;;;;;;;21.60;88.00;;;;;;4941766;28;19915;-69
2022/09/15 09:16:34;;;;;;;;;;;21.40;91.90;;;;;;4956756;28;19915;-71
2022/09/15 09:19:18;;;;;;;;;;;21.50;90.70;;;;;;4956598;28;19922;-70
2022/09/15 09:21:50;;;;;;;;;;;21.80;90.90;;;;;;4950556;28;20002;-71
2022/09/15 09:24:17;;;;;;;;;;;22.30;90.00;;;;;;4939442;29;19915;-69
2022/09/15 09:26:48;;;;;;;;;;;22.50;88.10;;;;;;4956649;28;20325;-69
2022/09/15 09:29:17;;;;;;;;;;;22.60;88.30;;;;;;4956601;28;19915;-68
2022/09/15 09:31:45;;;;;;;;;;;22.60;89.30;;;;;;4956478;28;19910;-68
2022/09/15 09:34:29;;;;;;;;;;;22.50;89.80;;;;;;4956530;28;20374;-70
2022/09/15 09:36:58;;;;;;;;;;;22.20;90.90;;;;;;4956381;28;19965;-69
2022/09/15 09:39:25;;;;;;;;;;;22.40;91.10;;;;;;4956522;28;19972;-70
2022/09/15 09:41:51;;;;;;;;;;;22.50;91.00;;;;;;4956153;28;19945;-67
2022/09/15 09:44:17;;;;;;;;;;;22.60;91.20;;;;;;4939488;28;19956;-69
2022/09/15 09:46:45;;;;;;;;;;;22.80;90.20;;;;;;4956299;28;19937;-67
2022/09/15 09:49:24;;;;;;;;;;;22.90;89.80;;;;;;4956264;28;19914;-69
2022/09/15 09:51:51;;;;;;;;;;;22.70;90.80;;;;;;4956041;28;20014;-69
2022/09/15 09:54:19;;;;;;;;;;;22.80;90.40;;;;;;4943718;28;19911;-67
2022/09/15 09:56:48;;;;;;;;;;;22.90;90.80;;;;;;4956027;28;20282;-69
2022/09/15 09:59:36;;;;;;;;;;;22.90;90.60;;;;;;4942737;28;20000;-69
2022/09/15 10:02:24;;;;;;;;;;;23.10;89.80;;;;;;4955783;28;20362;-69
2022/09/15 10:05:04;;;;;;;;;;;23.30;88.90;;;;;;4950653;29;19918;-69
2022/09/15 10:07:31;;;;;;;;;;;23.30;88.10;;;;;;4955890;28;20290;-69
2022/09/15 10:09:58;;;;;;;;;;;23.10;89.00;;;;;;4970826;28;20379;-68
2022/09/15 10:12:27;;;;;;;;;;;23.20;90.00;;;;;;4955813;28;19914;-68
2022/09/15 10:14:54;;;;;;;;;;;23.10;90.60;;;;;;4955709;28;19933;-62
2022/09/15 10:17:22;;;;;;;;;;;23.20;89.40;;;;;;4955529;28;20371;-63
2022/09/15 10:19:47;;;;;;;;;;;23.20;90.10;;;;;;4955287;28;19911;-64
2022/09/15 10:22:39;;;;;;;;;;;23.20;89.90;;;;;;4955982;28;19925;-64
2022/09/15 10:25:25;;;;;;;;;;;23.30;90.10;;;;;;4946110;28;19958;-64
2022/09/15 10:28:01;;;;;;;;;;;23.30;89.70;;;;;;4948150;28;19914;-63
2022/09/15 10:30:27;;;;;;;;;;;23.40;89.90;;;;;;4954771;28;19915;-63
2022/09/15 10:32:52;;;;;;;;;;;23.50;89.60;;;;;;4955350;28;19911;-64
2022/09/15 10:35:19;;;;;;;;;;;23.70;90.40;;;;;;4955323;28;19917;-70
2022/09/15 10:37:45;;;;;;;;;;;23.60;89.80;;;;;;4955188;28;19910;-69
2022/09/15 10:40:40;;;;;;;;;;;23.80;89.30;;;;;;4955646;28;19921;-69
2022/09/15 10:43:24;;;;;;;;;;;23.80;90.20;;;;;;4946108;28;19918;-71
2022/09/15 10:45:58;;;;;;;;;;;24.00;90.30;;;;;;4955704;28;20331;-69
2022/09/15 10:48:29;;;;;;;;;;;24.10;90.80;;;;;;4954949;28;19910;-69
2022/09/15 10:51:00;;;;;;;;;;;24.10;91.50;;;;;;4955121;28;20298;-71
2022/09/15 10:53:41;;;;;;;;;;;24.20;91.70;;;;;;4943561;28;19915;-68
2022/09/15 10:56:16;;;;;;;;;;;24.20;90.30;;;;;;4954974;28;19910;-70
2022/09/15 10:58:47;;;;;;;;;;;24.20;90.90;;;;;;4943227;28;19969;-69
2022/09/15 11:01:12;;;;;;;;;;;24.20;90.50;;;;;;4964255;29;20001;-71
2022/09/15 11:03:57;;;;;;;;;;;24.40;90.90;;;;;;4965258;28;19925;-66
2022/09/15 11:06:23;;;;;;;;;;;24.50;90.70;;;;;;4955141;28;19918;-69
2022/09/15 11:09:06;;;;;;;;;;;24.80;90.70;;;;;;4954777;28;19917;-68
2022/09/15 11:11:31;;;;;;;;;;;25.00;90.00;;;;;;4954787;28;19918;-64
2022/09/15 11:14:10;;;;;;;;;;;25.30;88.70;;;;;;4954582;28;20072;-69
2022/09/15 11:16:45;;;;;;;;;;;25.40;86.90;;;;;;4954908;28;20337;-67
2022/09/15 11:19:10;;;;;;;;;;;25.40;86.20;;;;;;4954239;28;20358;-63
2022/09/15 11:21:41;;;;;;;;;;;25.50;84.50;;;;;;4946160;28;19915;-65
2022/09/15 11:24:22;;;;;;;;;;;25.50;85.20;;;;;;4907191;29;19927;-65
2022/09/15 11:26:56;;;;;;;;;;;25.60;83.00;;;;;;4925755;28;19914;-66
2022/09/15 11:29:28;;;;;;;;;;;25.60;83.70;;;;;;4931620;29;19923;-68
2022/09/15 11:31:57;;;;;;;;;;;25.60;84.10;;;;;;4915395;29;19915;-66
2022/09/15 11:34:49;;;;;;;;;;;25.50;84.10;;;;;;4940332;29;19918;-70
2022/09/15 11:37:23;;;;;;;;;;;25.40;83.40;;;;;;4940483;28;19922;-70
2022/09/15 11:39:57;;;;;;;;;;;25.40;83.80;;;;;;4953049;29;19918;-64
2022/09/15 11:42:25;;;;;;;;;;;25.50;85.50;;;;;;4953203;28;19922;-59
2022/09/15 11:44:50;;;;;;;;;;;25.50;85.00;;;;;;4940863;28;19914;-66
2022/09/15 11:47:34;;;;;;;;;;;25.50;84.20;;;;;;4954253;28;19957;-60
2022/09/15 11:50:06;;;;;;;;;;;25.60;82.80;;;;;;4954328;28;19914;-61
2022/09/15 11:52:34;;;;;;;;;;;25.60;84.30;;;;;;4954175;28;20382;-61
2022/09/15 11:55:04;;;;;;;;;;;25.60;83.80;;;;;;4949016;28;19921;-61
2022/09/15 11:57:33;;;;;;;;;;;25.60;83.10;;;;;;4944161;28;20014;-60
2022/09/15 12:00:08;;;;;;;;;;;25.70;84.20;;;;;;4935041;29;19911;-66
2022/09/15 12:02:41;;;;;;;;;;;25.80;84.50;;;;;;4951034;29;19918;-71
2022/09/15 12:05:22;;;;;;;;;;;25.90;83.20;;;;;;4931602;28;19911;-64
2022/09/15 12:08:01;;;;;;;;;;;26.10;80.30;;;;;;4919555;29;20499;-68
2022/09/15 12:10:35;;;;;;;;;;;26.30;84.20;;;;;;4914827;28;19915;-64
2022/09/15 12:13:01;;;;;;;;;;;26.40;81.40;;;;;;4930137;29;19919;-65
2022/09/15 12:15:27;;;;;;;;;;;26.60;78.70;;;;;;4919982;29;19922;-73
2022/09/15 12:18:13;;;;;;;;;;;26.60;77.80;;;;;;4915252;29;20366;-68
2022/09/15 12:20:47;;;;;;;;;;;26.60;78.40;;;;;;4942937;29;19918;-68
2022/09/15 12:23:31;;;;;;;;;;;26.60;77.70;;;;;;4913260;29;19923;-70
2022/09/15 12:26:04;;;;;;;;;;;26.40;77.30;;;;;;4930814;29;19911;-68
2022/09/15 12:28:49;;;;;;;;;;;26.40;76.40;;;;;;4927373;29;19984;-70
2022/09/15 12:31:27;;;;;;;;;;;26.30;79.50;;;;;;4936718;29;19961;-69
2022/09/15 12:33:53;;;;;;;;;;;26.40;77.10;;;;;;4936633;29;19958;-65
2022/09/15 12:36:30;;;;;;;;;;;26.50;77.40;;;;;;4932904;29;19915;-65
2022/09/15 12:38:55;;;;;;;;;;;26.40;77.20;;;;;;4925264;29;19915;-69
2022/09/15 12:41:21;;;;;;;;;;;26.40;76.20;;;;;;4947608;28;19922;-71
2022/09/15 12:43:58;;;;;;;;;;;26.50;77.90;;;;;;4934049;29;19919;-71
2022/09/15 12:46:24;;;;;;;;;;;26.40;75.70;;;;;;4933628;28;19922;-70
2022/09/15 12:48:51;;;;;;;;;;;26.50;76.70;;;;;;4931337;29;19911;-64
2022/09/15 12:51:21;;;;;;;;;;;26.50;77.10;;;;;;4928751;29;20335;-65
2022/09/15 12:54:03;;;;;;;;;;;26.60;76.50;;;;;;4930787;28;19962;-69
2022/09/15 12:56:32;;;;;;;;;;;26.70;76.80;;;;;;4937539;28;19918;-70
2022/09/15 12:59:02;;;;;;;;;;;26.60;76.20;;;;;;4943348;28;20006;-66
2022/09/15 13:01:29;;;;;;;;;;;26.70;75.80;;;;;;4957222;28;19938;-66
2022/09/15 13:03:58;;;;;;;;;;;26.60;77.50;;;;;;4956833;28;19919;-65
2022/09/15 13:06:24;;;;;;;;;;;26.50;77.40;;;;;;4938940;28;19970;-64
2022/09/15 13:08:51;;;;;;;;;;;26.50;75.20;;;;;;4918078;29;20279;-63
2022/09/15 13:11:35;;;;;;;;;;;26.50;76.30;;;;;;4918179;28;19922;-64
2022/09/15 13:14:07;;;;;;;;;;;26.50;77.30;;;;;;4936452;29;19922;-70
2022/09/15 13:16:35;;;;;;;;;;;26.40;76.90;;;;;;4934335;29;19910;-68
2022/09/15 13:19:12;;;;;;;;;;;26.40;77.50;;;;;;4950981;28;19970;-68
2022/09/15 13:21:40;;;;;;;;;;;26.40;76.40;;;;;;4923712;29;19912;-69
2022/09/15 13:24:11;;;;;;;;;;;26.50;76.60;;;;;;4907678;29;19930;-68
2022/09/15 13:26:37;;;;;;;;;;;26.50;75.50;;;;;;4917839;29;19915;-70
2022/09/15 13:29:03;;;;;;;;;;;26.40;75.30;;;;;;4931921;28;19915;-70
2022/09/15 13:31:29;;;;;;;;;;;26.50;75.70;;;;;;4920437;29;19912;-65
2022/09/15 13:33:57;;;;;;;;;;;26.50;75.90;;;;;;4917750;29;19916;-70
2022/09/15 13:36:23;;;;;;;;;;;26.50;75.40;;;;;;4919165;29;19911;-68
2022/09/15 13:38:55;;;;;;;;;;;26.50;76.10;;;;;;4941178;29;19939;-66
2022/09/15 13:41:23;;;;;;;;;;;26.60;76.10;;;;;;4931297;28;20019;-68
2022/09/15 13:44:18;;;;;;;;;;;26.50;74.90;;;;;;4931862;29;20445;-71
2022/09/15 13:46:47;;;;;;;;;;;26.50;75.70;;;;;;4932659;29;19966;-67
2022/09/15 13:49:18;;;;;;;;;;;26.60;75.60;;;;;;4924858;29;19947;-67
2022/09/15 13:51:49;;;;;;;;;;;26.60;75.20;;;;;;4916714;29;20418;-68
2022/09/15 13:54:17;;;;;;;;;;;26.50;75.40;;;;;;4907370;29;19922;-65
2022/09/15 13:56:44;;;;;;;;;;;26.60;76.60;;;;;;4916891;29;19930;-66
2022/09/15 13:59:14;;;;;;;;;;;26.60;76.50;;;;;;4924645;29;19925;-66
2022/09/15 14:01:41;;;;;;;;;;;26.70;76.40;;;;;;4933215;29;20319;-63
2022/09/15 14:04:15;;;;;;;;;;;26.70;75.50;;;;;;4916967;29;19954;-68
2022/09/15 14:06:43;;;;;;;;;;;26.60;74.70;;;;;;4929333;28;19915;-70
2022/09/15 14:09:15;;;;;;;;;;;26.60;75.90;;;;;;4916628;28;19949;-66
2022/09/15 14:11:41;;;;;;;;;;;26.70;75.20;;;;;;4921943;29;19912;-68
2022/09/15 14:14:28;;;;;;;;;;;26.70;74.10;;;;;;4917029;29;19939;-66
2022/09/15 14:16:54;;;;;;;;;;;26.70;73.70;;;;;;4917472;29;19917;-66
2022/09/15 14:19:30;;;;;;;;;;;26.50;74.80;;;;;;4917370;29;19919;-66
2022/09/15 14:21:55;;;;;;;;;;;26.50;74.60;;;;;;4935779;28;19914;-65
2022/09/15 14:24:24;;;;;;;;;;;26.50;74.80;;;;;;4918335;29;19929;-64
2022/09/15 14:26:49;;;;;;;;;;;26.60;74.70;;;;;;4916662;29;19998;-68